sensor_id;sensor_type;location;lat;lon;timestamp;P1;durP1;ratioP1;P2;durP2;ratioP2
7753;SDS011;3921;42.266;23.122;2023-03-11T00:01:59;5.30;;;2.70;;
7753;SDS011;3921;42.266;23.122;2023-03-11T00:04:26;3.77;;;2.30;;
7753;SDS011;3921;42.266;23.122;2023-03-11T00:06:56;1.87;;;1.40;;
7753;SDS011;3921;42.266;23.122;2023-03-11T00:09:27;2.97;;;1.50;;
7753;SDS011;3921;42.266;23.122;2023-03-11T00:11:55;2.73;;;1.60;;
7753;SDS011;3921;42.266;23.122;2023-03-11T00:14:31;2.23;;;1.60;;
7753;SDS011;3921;42.266;23.122;2023-03-11T00:17:02;2.53;;;1.60;;
7753;SDS011;3921;42.266;23.122;2023-03-11T00:19:29;2.10;;;1.40;;
7753;SDS011;3921;42.266;23.122;2023-03-11T00:21:58;3.57;;;1.27;;
7753;SDS011;3921;42.266;23.122;2023-03-11T00:24:27;0.97;;;0.90;;
7753;SDS011;3921;42.266;23.122;2023-03-11T00:26:54;0.50;;;0.50;;
7753;SDS011;3921;42.266;23.122;2023-03-11T00:29:21;1.23;;;0.60;;
7753;SDS011;3921;42.266;23.122;2023-03-11T00:31:48;0.37;;;0.37;;
7753;SDS011;3921;42.266;23.122;2023-03-11T00:34:15;1.07;;;0.40;;
7753;SDS011;3921;42.266;23.122;2023-03-11T00:36:42;0.67;;;0.30;;
7753;SDS011;3921;42.266;23.122;2023-03-11T00:39:11;0.60;;;0.60;;
7753;SDS011;3921;42.266;23.122;2023-03-11T00:41:39;0.60;;;0.50;;
7753;SDS011;3921;42.266;23.122;2023-03-11T00:44:06;0.60;;;0.60;;
7753;SDS011;3921;42.266;23.122;2023-03-11T00:46:33;1.23;;;0.70;;
7753;SDS011;3921;42.266;23.122;2023-03-11T00:49:00;0.80;;;0.80;;
7753;SDS011;3921;42.266;23.122;2023-03-11T00:51:27;1.47;;;0.93;;
7753;SDS011;3921;42.266;23.122;2023-03-11T00:53:55;1.60;;;0.83;;
7753;SDS011;3921;42.266;23.122;2023-03-11T00:56:23;1.03;;;0.90;;
7753;SDS011;3921;42.266;23.122;2023-03-11T00:58:50;0.60;;;0.60;;
7753;SDS011;3921;42.266;23.122;2023-03-11T01:01:18;0.73;;;0.60;;
7753;SDS011;3921;42.266;23.122;2023-03-11T01:03:46;0.60;;;0.60;;
7753;SDS011;3921;42.266;23.122;2023-03-11T01:06:13;0.50;;;0.50;;
7753;SDS011;3921;42.266;23.122;2023-03-11T01:08:41;0.70;;;0.63;;
7753;SDS011;3921;42.266;23.122;2023-03-11T01:11:08;0.70;;;0.70;;
7753;SDS011;3921;42.266;23.122;2023-03-11T01:13:37;0.60;;;0.60;;
7753;SDS011;3921;42.266;23.122;2023-03-11T01:16:04;1.40;;;0.90;;
7753;SDS011;3921;42.266;23.122;2023-03-11T01:18:32;0.60;;;0.60;;
7753;SDS011;3921;42.266;23.122;2023-03-11T01:20:59;0.77;;;0.67;;
7753;SDS011;3921;42.266;23.122;2023-03-11T01:23:26;1.10;;;0.73;;
7753;SDS011;3921;42.266;23.122;2023-03-11T01:25:57;1.27;;;0.90;;
7753;SDS011;3921;42.266;23.122;2023-03-11T01:28:24;0.67;;;0.67;;
7753;SDS011;3921;42.266;23.122;2023-03-11T01:30:53;0.60;;;0.60;;
7753;SDS011;3921;42.266;23.122;2023-03-11T01:33:20;1.47;;;0.80;;
7753;SDS011;3921;42.266;23.122;2023-03-11T01:35:47;0.90;;;0.70;;
7753;SDS011;3921;42.266;23.122;2023-03-11T01:38:14;1.97;;;0.70;;
7753;SDS011;3921;42.266;23.122;2023-03-11T01:40:43;0.90;;;0.53;;
7753;SDS011;3921;42.266;23.122;2023-03-11T01:46:15;0.70;;;0.70;;
7753;SDS011;3921;42.266;23.122;2023-03-11T01:48:44;0.50;;;0.50;;
7753;SDS011;3921;42.266;23.122;2023-03-11T01:51:14;0.50;;;0.50;;
7753;SDS011;3921;42.266;23.122;2023-03-11T01:53:45;1.07;;;0.50;;
7753;SDS011;3921;42.266;23.122;2023-03-11T01:56:12;0.40;;;0.40;;
7753;SDS011;3921;42.266;23.122;2023-03-11T01:58:40;0.50;;;0.50;;
7753;SDS011;3921;42.266;23.122;2023-03-11T02:01:14;0.53;;;0.50;;
7753;SDS011;3921;42.266;23.122;2023-03-11T02:03:51;0.40;;;0.40;;
7753;SDS011;3921;42.266;23.122;2023-03-11T02:06:22;0.53;;;0.50;;
7753;SDS011;3921;42.266;23.122;2023-03-11T02:08:51;0.30;;;0.30;;
7753;SDS011;3921;42.266;23.122;2023-03-11T02:11:20;0.67;;;0.50;;
7753;SDS011;3921;42.266;23.122;2023-03-11T02:13:50;0.50;;;0.50;;
7753;SDS011;3921;42.266;23.122;2023-03-11T02:16:21;2.43;;;0.60;;
7753;SDS011;3921;42.266;23.122;2023-03-11T02:18:48;0.80;;;0.70;;
7753;SDS011;3921;42.266;23.122;2023-03-11T02:21:19;0.70;;;0.70;;
7753;SDS011;3921;42.266;23.122;2023-03-11T02:23:54;0.97;;;0.80;;
7753;SDS011;3921;42.266;23.122;2023-03-11T02:26:27;1.17;;;0.70;;
7753;SDS011;3921;42.266;23.122;2023-03-11T02:29:03;0.60;;;0.60;;
7753;SDS011;3921;42.266;23.122;2023-03-11T02:31:33;0.70;;;0.70;;
7753;SDS011;3921;42.266;23.122;2023-03-11T02:34:04;1.10;;;0.83;;
7753;SDS011;3921;42.266;23.122;2023-03-11T02:36:35;1.00;;;0.90;;
7753;SDS011;3921;42.266;23.122;2023-03-11T02:39:04;1.43;;;0.90;;
7753;SDS011;3921;42.266;23.122;2023-03-11T02:41:35;1.23;;;0.80;;
7753;SDS011;3921;42.266;23.122;2023-03-11T02:44:06;2.73;;;0.93;;
7753;SDS011;3921;42.266;23.122;2023-03-11T02:46:36;1.47;;;0.93;;
7753;SDS011;3921;42.266;23.122;2023-03-11T02:49:06;2.50;;;0.83;;
7753;SDS011;3921;42.266;23.122;2023-03-11T02:51:33;0.77;;;0.70;;
7753;SDS011;3921;42.266;23.122;2023-03-11T02:54:02;1.23;;;0.60;;
7753;SDS011;3921;42.266;23.122;2023-03-11T02:56:30;0.87;;;0.87;;
7753;SDS011;3921;42.266;23.122;2023-03-11T02:58:58;1.13;;;0.90;;
7753;SDS011;3921;42.266;23.122;2023-03-11T03:01:26;1.67;;;0.80;;
7753;SDS011;3921;42.266;23.122;2023-03-11T03:03:54;0.97;;;0.80;;
7753;SDS011;3921;42.266;23.122;2023-03-11T03:06:21;1.03;;;0.80;;
7753;SDS011;3921;42.266;23.122;2023-03-11T03:08:54;1.50;;;1.03;;
7753;SDS011;3921;42.266;23.122;2023-03-11T03:11:30;1.93;;;1.00;;
7753;SDS011;3921;42.266;23.122;2023-03-11T03:13:57;1.10;;;1.00;;
7753;SDS011;3921;42.266;23.122;2023-03-11T03:16:24;1.57;;;0.97;;
7753;SDS011;3921;42.266;23.122;2023-03-11T03:18:53;1.43;;;0.90;;
7753;SDS011;3921;42.266;23.122;2023-03-11T03:21:20;0.93;;;0.90;;
7753;SDS011;3921;42.266;23.122;2023-03-11T03:23:47;1.40;;;0.90;;
7753;SDS011;3921;42.266;23.122;2023-03-11T03:26:17;0.70;;;0.70;;
7753;SDS011;3921;42.266;23.122;2023-03-11T03:28:47;1.13;;;0.70;;
7753;SDS011;3921;42.266;23.122;2023-03-11T03:31:14;0.80;;;0.80;;
7753;SDS011;3921;42.266;23.122;2023-03-11T03:33:42;0.73;;;0.70;;
7753;SDS011;3921;42.266;23.122;2023-03-11T03:36:12;1.03;;;1.00;;
7753;SDS011;3921;42.266;23.122;2023-03-11T03:38:41;0.87;;;0.87;;
7753;SDS011;3921;42.266;23.122;2023-03-11T03:41:08;1.27;;;1.10;;
7753;SDS011;3921;42.266;23.122;2023-03-11T03:43:35;1.20;;;0.80;;
7753;SDS011;3921;42.266;23.122;2023-03-11T03:46:03;0.70;;;0.70;;
7753;SDS011;3921;42.266;23.122;2023-03-11T03:48:31;1.53;;;0.83;;
7753;SDS011;3921;42.266;23.122;2023-03-11T03:51:01;0.97;;;0.83;;
7753;SDS011;3921;42.266;23.122;2023-03-11T03:53:31;0.80;;;0.80;;
7753;SDS011;3921;42.266;23.122;2023-03-11T03:56:01;2.63;;;1.70;;
7753;SDS011;3921;42.266;23.122;2023-03-11T03:58:29;1.17;;;1.00;;
7753;SDS011;3921;42.266;23.122;2023-03-11T04:00:56;1.77;;;1.30;;
7753;SDS011;3921;42.266;23.122;2023-03-11T04:03:24;2.57;;;1.70;;
7753;SDS011;3921;42.266;23.122;2023-03-11T04:05:52;1.23;;;1.13;;
7753;SDS011;3921;42.266;23.122;2023-03-11T04:08:21;1.10;;;0.80;;
7753;SDS011;3921;42.266;23.122;2023-03-11T04:10:57;1.80;;;1.10;;
7753;SDS011;3921;42.266;23.122;2023-03-11T04:13:24;0.50;;;0.50;;
7753;SDS011;3921;42.266;23.122;2023-03-11T04:15:51;0.40;;;0.40;;
7753;SDS011;3921;42.266;23.122;2023-03-11T04:18:18;0.87;;;0.80;;
7753;SDS011;3921;42.266;23.122;2023-03-11T04:20:47;1.33;;;0.60;;
7753;SDS011;3921;42.266;23.122;2023-03-11T04:23:15;0.90;;;0.80;;
7753;SDS011;3921;42.266;23.122;2023-03-11T04:25:42;0.83;;;0.83;;
7753;SDS011;3921;42.266;23.122;2023-03-11T04:28:11;0.90;;;0.83;;
7753;SDS011;3921;42.266;23.122;2023-03-11T04:30:38;0.87;;;0.80;;
7753;SDS011;3921;42.266;23.122;2023-03-11T04:33:05;0.50;;;0.50;;
7753;SDS011;3921;42.266;23.122;2023-03-11T04:35:32;0.70;;;0.70;;
7753;SDS011;3921;42.266;23.122;2023-03-11T04:38:00;1.43;;;0.77;;
7753;SDS011;3921;42.266;23.122;2023-03-11T04:40:27;1.50;;;0.70;;
7753;SDS011;3921;42.266;23.122;2023-03-11T04:42:54;1.23;;;0.60;;
7753;SDS011;3921;42.266;23.122;2023-03-11T04:45:23;0.40;;;0.40;;
7753;SDS011;3921;42.266;23.122;2023-03-11T04:47:51;0.70;;;0.70;;
7753;SDS011;3921;42.266;23.122;2023-03-11T04:50:18;0.67;;;0.67;;
7753;SDS011;3921;42.266;23.122;2023-03-11T04:52:45;0.90;;;0.60;;
7753;SDS011;3921;42.266;23.122;2023-03-11T04:55:13;1.17;;;0.73;;
7753;SDS011;3921;42.266;23.122;2023-03-11T04:57:41;1.17;;;0.70;;
7753;SDS011;3921;42.266;23.122;2023-03-11T05:00:10;0.80;;;0.80;;
7753;SDS011;3921;42.266;23.122;2023-03-11T05:02:41;0.90;;;0.90;;
7753;SDS011;3921;42.266;23.122;2023-03-11T05:05:09;0.97;;;0.87;;
7753;SDS011;3921;42.266;23.122;2023-03-11T05:07:36;1.80;;;1.30;;
7753;SDS011;3921;42.266;23.122;2023-03-11T05:10:03;0.90;;;0.90;;
7753;SDS011;3921;42.266;23.122;2023-03-11T05:12:32;0.97;;;0.97;;
7753;SDS011;3921;42.266;23.122;2023-03-11T05:14:59;1.27;;;0.90;;
7753;SDS011;3921;42.266;23.122;2023-03-11T05:17:26;1.80;;;1.23;;
7753;SDS011;3921;42.266;23.122;2023-03-11T05:19:56;1.73;;;1.63;;
7753;SDS011;3921;42.266;23.122;2023-03-11T05:22:24;1.37;;;1.27;;
7753;SDS011;3921;42.266;23.122;2023-03-11T05:24:51;1.70;;;1.60;;
7753;SDS011;3921;42.266;23.122;2023-03-11T05:27:18;1.93;;;1.50;;
7753;SDS011;3921;42.266;23.122;2023-03-11T05:29:45;5.73;;;3.40;;
7753;SDS011;3921;42.266;23.122;2023-03-11T05:32:12;8.70;;;6.23;;
7753;SDS011;3921;42.266;23.122;2023-03-11T05:34:39;7.90;;;4.70;;
7753;SDS011;3921;42.266;23.122;2023-03-11T05:37:08;2.50;;;1.90;;
7753;SDS011;3921;42.266;23.122;2023-03-11T05:39:35;3.23;;;2.13;;
7753;SDS011;3921;42.266;23.122;2023-03-11T05:42:08;2.40;;;1.83;;
7753;SDS011;3921;42.266;23.122;2023-03-11T05:44:54;2.60;;;1.40;;
7753;SDS011;3921;42.266;23.122;2023-03-11T05:47:21;2.60;;;1.40;;
7753;SDS011;3921;42.266;23.122;2023-03-11T05:50:02;2.70;;;2.00;;
7753;SDS011;3921;42.266;23.122;2023-03-11T05:52:31;2.23;;;1.87;;
7753;SDS011;3921;42.266;23.122;2023-03-11T05:54:59;2.37;;;1.67;;
7753;SDS011;3921;42.266;23.122;2023-03-11T05:57:26;2.47;;;1.97;;
7753;SDS011;3921;42.266;23.122;2023-03-11T05:59:53;2.37;;;1.40;;
7753;SDS011;3921;42.266;23.122;2023-03-11T06:02:21;2.67;;;1.97;;
7753;SDS011;3921;42.266;23.122;2023-03-11T06:04:48;2.73;;;1.87;;
7753;SDS011;3921;42.266;23.122;2023-03-11T06:07:15;2.27;;;2.07;;
7753;SDS011;3921;42.266;23.122;2023-03-11T06:09:43;2.73;;;2.10;;
7753;SDS011;3921;42.266;23.122;2023-03-11T06:12:11;4.50;;;1.70;;
7753;SDS011;3921;42.266;23.122;2023-03-11T06:14:38;3.33;;;2.00;;
7753;SDS011;3921;42.266;23.122;2023-03-11T06:17:05;2.87;;;2.10;;
7753;SDS011;3921;42.266;23.122;2023-03-11T06:19:33;2.70;;;2.30;;
7753;SDS011;3921;42.266;23.122;2023-03-11T06:22:00;3.90;;;2.90;;
7753;SDS011;3921;42.266;23.122;2023-03-11T06:24:28;3.90;;;2.20;;
7753;SDS011;3921;42.266;23.122;2023-03-11T06:26:56;2.60;;;2.27;;
7753;SDS011;3921;42.266;23.122;2023-03-11T06:29:23;2.60;;;2.30;;
7753;SDS011;3921;42.266;23.122;2023-03-11T06:31:53;5.13;;;2.60;;
7753;SDS011;3921;42.266;23.122;2023-03-11T06:34:20;4.73;;;2.87;;
7753;SDS011;3921;42.266;23.122;2023-03-11T06:36:49;4.93;;;3.13;;
7753;SDS011;3921;42.266;23.122;2023-03-11T06:39:17;4.83;;;3.10;;
7753;SDS011;3921;42.266;23.122;2023-03-11T06:41:47;4.97;;;3.23;;
7753;SDS011;3921;42.266;23.122;2023-03-11T06:44:16;5.63;;;3.20;;
7753;SDS011;3921;42.266;23.122;2023-03-11T06:46:43;6.47;;;3.73;;
7753;SDS011;3921;42.266;23.122;2023-03-11T06:49:10;6.57;;;4.30;;
7753;SDS011;3921;42.266;23.122;2023-03-11T06:51:37;4.40;;;3.40;;
7753;SDS011;3921;42.266;23.122;2023-03-11T06:54:04;6.23;;;3.00;;
7753;SDS011;3921;42.266;23.122;2023-03-11T06:56:32;4.07;;;2.97;;
7753;SDS011;3921;42.266;23.122;2023-03-11T06:58:59;2.33;;;2.10;;
7753;SDS011;3921;42.266;23.122;2023-03-11T07:01:28;3.20;;;2.80;;
7753;SDS011;3921;42.266;23.122;2023-03-11T07:03:55;4.30;;;3.20;;
7753;SDS011;3921;42.266;23.122;2023-03-11T07:06:23;5.33;;;3.00;;
7753;SDS011;3921;42.266;23.122;2023-03-11T07:08:52;5.77;;;3.87;;
7753;SDS011;3921;42.266;23.122;2023-03-11T07:11:20;4.77;;;3.40;;
7753;SDS011;3921;42.266;23.122;2023-03-11T07:13:49;4.10;;;3.03;;
7753;SDS011;3921;42.266;23.122;2023-03-11T07:16:18;4.27;;;3.43;;
7753;SDS011;3921;42.266;23.122;2023-03-11T07:18:48;6.40;;;3.70;;
7753;SDS011;3921;42.266;23.122;2023-03-11T07:21:17;6.23;;;4.00;;
7753;SDS011;3921;42.266;23.122;2023-03-11T07:23:46;5.10;;;3.57;;
7753;SDS011;3921;42.266;23.122;2023-03-11T07:26:15;4.47;;;3.33;;
7753;SDS011;3921;42.266;23.122;2023-03-11T07:28:43;5.73;;;3.30;;
7753;SDS011;3921;42.266;23.122;2023-03-11T07:31:11;5.23;;;3.50;;
7753;SDS011;3921;42.266;23.122;2023-03-11T07:33:39;6.20;;;3.30;;
7753;SDS011;3921;42.266;23.122;2023-03-11T07:36:09;4.57;;;2.73;;
7753;SDS011;3921;42.266;23.122;2023-03-11T07:38:37;4.90;;;2.73;;
7753;SDS011;3921;42.266;23.122;2023-03-11T07:41:05;4.33;;;3.10;;
7753;SDS011;3921;42.266;23.122;2023-03-11T07:43:33;4.07;;;3.27;;
7753;SDS011;3921;42.266;23.122;2023-03-11T07:46:03;2.90;;;2.60;;
7753;SDS011;3921;42.266;23.122;2023-03-11T07:48:32;3.30;;;2.00;;
7753;SDS011;3921;42.266;23.122;2023-03-11T07:51:01;3.40;;;2.10;;
7753;SDS011;3921;42.266;23.122;2023-03-11T07:53:34;2.17;;;1.97;;
7753;SDS011;3921;42.266;23.122;2023-03-11T07:56:08;2.70;;;1.80;;
7753;SDS011;3921;42.266;23.122;2023-03-11T07:58:47;2.67;;;1.33;;
7753;SDS011;3921;42.266;23.122;2023-03-11T08:01:16;1.50;;;1.20;;
7753;SDS011;3921;42.266;23.122;2023-03-11T08:03:52;2.10;;;1.67;;
7753;SDS011;3921;42.266;23.122;2023-03-11T08:06:22;3.93;;;1.63;;
7753;SDS011;3921;42.266;23.122;2023-03-11T08:08:52;3.53;;;1.73;;
7753;SDS011;3921;42.266;23.122;2023-03-11T08:11:19;2.97;;;1.90;;
7753;SDS011;3921;42.266;23.122;2023-03-11T08:13:47;2.53;;;1.60;;
7753;SDS011;3921;42.266;23.122;2023-03-11T08:16:15;3.93;;;1.50;;
7753;SDS011;3921;42.266;23.122;2023-03-11T08:18:44;1.50;;;1.37;;
7753;SDS011;3921;42.266;23.122;2023-03-11T08:21:12;2.53;;;1.40;;
7753;SDS011;3921;42.266;23.122;2023-03-11T08:23:40;2.30;;;1.10;;
7753;SDS011;3921;42.266;23.122;2023-03-11T08:26:14;2.87;;;1.20;;
7753;SDS011;3921;42.266;23.122;2023-03-11T08:28:43;2.53;;;1.47;;
7753;SDS011;3921;42.266;23.122;2023-03-11T08:31:11;0.93;;;0.77;;
7753;SDS011;3921;42.266;23.122;2023-03-11T08:33:42;1.70;;;1.00;;
7753;SDS011;3921;42.266;23.122;2023-03-11T08:36:10;2.93;;;1.50;;
7753;SDS011;3921;42.266;23.122;2023-03-11T08:38:37;0.93;;;0.90;;
7753;SDS011;3921;42.266;23.122;2023-03-11T08:41:07;4.03;;;1.73;;
7753;SDS011;3921;42.266;23.122;2023-03-11T08:43:36;2.10;;;1.20;;
7753;SDS011;3921;42.266;23.122;2023-03-11T08:46:04;2.20;;;1.17;;
7753;SDS011;3921;42.266;23.122;2023-03-11T08:48:32;1.20;;;0.90;;
7753;SDS011;3921;42.266;23.122;2023-03-11T08:50:59;1.00;;;0.60;;
7753;SDS011;3921;42.266;23.122;2023-03-11T08:53:27;1.43;;;0.70;;
7753;SDS011;3921;42.266;23.122;2023-03-11T08:55:54;1.90;;;1.10;;
7753;SDS011;3921;42.266;23.122;2023-03-11T08:58:22;2.20;;;1.30;;
7753;SDS011;3921;42.266;23.122;2023-03-11T09:00:50;1.73;;;1.23;;
7753;SDS011;3921;42.266;23.122;2023-03-11T09:03:18;6.80;;;3.60;;
7753;SDS011;3921;42.266;23.122;2023-03-11T09:05:47;3.10;;;2.13;;
7753;SDS011;3921;42.266;23.122;2023-03-11T09:08:15;1.97;;;1.67;;
7753;SDS011;3921;42.266;23.122;2023-03-11T09:10:42;1.50;;;1.17;;
7753;SDS011;3921;42.266;23.122;2023-03-11T09:13:10;0.83;;;0.57;;
7753;SDS011;3921;42.266;23.122;2023-03-11T09:15:37;5.03;;;1.47;;
7753;SDS011;3921;42.266;23.122;2023-03-11T09:18:06;3.33;;;1.20;;
7753;SDS011;3921;42.266;23.122;2023-03-11T09:20:36;2.20;;;1.10;;
7753;SDS011;3921;42.266;23.122;2023-03-11T09:23:03;4.67;;;1.37;;
7753;SDS011;3921;42.266;23.122;2023-03-11T09:25:31;3.47;;;1.60;;
7753;SDS011;3921;42.266;23.122;2023-03-11T09:27:58;4.77;;;1.90;;
7753;SDS011;3921;42.266;23.122;2023-03-11T09:30:25;1.77;;;1.30;;
7753;SDS011;3921;42.266;23.122;2023-03-11T09:32:52;1.37;;;1.20;;
7753;SDS011;3921;42.266;23.122;2023-03-11T09:35:21;1.40;;;1.30;;
7753;SDS011;3921;42.266;23.122;2023-03-11T09:37:48;2.30;;;1.50;;
7753;SDS011;3921;42.266;23.122;2023-03-11T09:40:17;2.77;;;1.50;;
7753;SDS011;3921;42.266;23.122;2023-03-11T09:42:48;1.23;;;1.00;;
7753;SDS011;3921;42.266;23.122;2023-03-11T09:45:23;0.97;;;0.93;;
7753;SDS011;3921;42.266;23.122;2023-03-11T09:47:58;3.00;;;1.67;;
7753;SDS011;3921;42.266;23.122;2023-03-11T09:50:38;2.43;;;1.03;;
7753;SDS011;3921;42.266;23.122;2023-03-11T09:53:18;1.70;;;0.90;;
7753;SDS011;3921;42.266;23.122;2023-03-11T09:55:55;1.47;;;0.90;;
7753;SDS011;3921;42.266;23.122;2023-03-11T09:58:27;1.37;;;1.27;;
7753;SDS011;3921;42.266;23.122;2023-03-11T10:01:02;1.13;;;1.03;;
7753;SDS011;3921;42.266;23.122;2023-03-11T10:03:38;5.80;;;1.50;;
7753;SDS011;3921;42.266;23.122;2023-03-11T10:06:15;3.37;;;1.73;;
7753;SDS011;3921;42.266;23.122;2023-03-11T10:08:46;3.80;;;1.73;;
7753;SDS011;3921;42.266;23.122;2023-03-11T10:11:35;3.20;;;1.50;;
7753;SDS011;3921;42.266;23.122;2023-03-11T10:14:19;2.07;;;1.70;;
7753;SDS011;3921;42.266;23.122;2023-03-11T10:17:05;1.83;;;1.50;;
7753;SDS011;3921;42.266;23.122;2023-03-11T10:19:42;3.13;;;1.27;;
7753;SDS011;3921;42.266;23.122;2023-03-11T10:22:16;1.57;;;0.90;;
7753;SDS011;3921;42.266;23.122;2023-03-11T10:24:56;2.23;;;1.30;;
7753;SDS011;3921;42.266;23.122;2023-03-11T10:27:30;2.27;;;1.37;;
7753;SDS011;3921;42.266;23.122;2023-03-11T10:30:05;3.97;;;1.60;;
7753;SDS011;3921;42.266;23.122;2023-03-11T10:32:40;1.40;;;1.20;;
7753;SDS011;3921;42.266;23.122;2023-03-11T10:35:16;2.50;;;1.30;;
7753;SDS011;3921;42.266;23.122;2023-03-11T10:37:49;1.77;;;1.20;;
7753;SDS011;3921;42.266;23.122;2023-03-11T10:40:23;2.70;;;1.27;;
7753;SDS011;3921;42.266;23.122;2023-03-11T10:42:54;3.57;;;1.77;;
7753;SDS011;3921;42.266;23.122;2023-03-11T10:45:26;1.53;;;1.30;;
7753;SDS011;3921;42.266;23.122;2023-03-11T10:47:58;4.13;;;1.67;;
7753;SDS011;3921;42.266;23.122;2023-03-11T10:50:26;5.20;;;2.47;;
7753;SDS011;3921;42.266;23.122;2023-03-11T10:53:05;4.07;;;2.63;;
7753;SDS011;3921;42.266;23.122;2023-03-11T10:55:34;4.20;;;2.60;;
7753;SDS011;3921;42.266;23.122;2023-03-11T10:58:13;4.73;;;2.97;;
7753;SDS011;3921;42.266;23.122;2023-03-11T11:00:42;6.53;;;4.40;;
7753;SDS011;3921;42.266;23.122;2023-03-11T11:03:15;5.57;;;3.63;;
7753;SDS011;3921;42.266;23.122;2023-03-11T11:08:45;3.87;;;2.63;;
7753;SDS011;3921;42.266;23.122;2023-03-11T11:11:19;4.17;;;2.87;;
7753;SDS011;3921;42.266;23.122;2023-03-11T11:13:55;5.60;;;3.50;;
7753;SDS011;3921;42.266;23.122;2023-03-11T11:16:23;7.27;;;3.80;;
7753;SDS011;3921;42.266;23.122;2023-03-11T11:18:52;6.10;;;3.70;;
7753;SDS011;3921;42.266;23.122;2023-03-11T11:21:30;5.90;;;3.10;;
7753;SDS011;3921;42.266;23.122;2023-03-11T11:24:05;4.53;;;3.00;;
7753;SDS011;3921;42.266;23.122;2023-03-11T11:26:41;4.17;;;2.97;;
7753;SDS011;3921;42.266;23.122;2023-03-11T11:29:12;4.23;;;2.60;;
7753;SDS011;3921;42.266;23.122;2023-03-11T11:31:41;3.10;;;2.43;;
7753;SDS011;3921;42.266;23.122;2023-03-11T11:34:23;4.60;;;3.03;;
7753;SDS011;3921;42.266;23.122;2023-03-11T11:36:55;4.87;;;2.93;;
7753;SDS011;3921;42.266;23.122;2023-03-11T11:39:26;3.43;;;2.17;;
7753;SDS011;3921;42.266;23.122;2023-03-11T11:41:56;2.70;;;1.67;;
7753;SDS011;3921;42.266;23.122;2023-03-11T11:44:28;3.17;;;2.10;;
7753;SDS011;3921;42.266;23.122;2023-03-11T11:46:59;5.10;;;2.70;;
7753;SDS011;3921;42.266;23.122;2023-03-11T11:49:34;5.87;;;2.83;;
7753;SDS011;3921;42.266;23.122;2023-03-11T11:52:07;2.90;;;1.90;;
7753;SDS011;3921;42.266;23.122;2023-03-11T11:54:41;3.77;;;1.90;;
7753;SDS011;3921;42.266;23.122;2023-03-11T11:57:14;2.83;;;1.23;;
7753;SDS011;3921;42.266;23.122;2023-03-11T11:59:45;2.47;;;1.70;;
7753;SDS011;3921;42.266;23.122;2023-03-11T12:02:18;5.53;;;1.70;;
7753;SDS011;3921;42.266;23.122;2023-03-11T12:05:03;3.87;;;1.80;;
7753;SDS011;3921;42.266;23.122;2023-03-11T12:07:47;2.60;;;1.80;;
7753;SDS011;3921;42.266;23.122;2023-03-11T12:10:38;3.10;;;1.60;;
7753;SDS011;3921;42.266;23.122;2023-03-11T12:13:13;2.20;;;1.77;;
7753;SDS011;3921;42.266;23.122;2023-03-11T12:15:57;3.27;;;1.43;;
7753;SDS011;3921;42.266;23.122;2023-03-11T12:18:32;1.20;;;1.10;;
7753;SDS011;3921;42.266;23.122;2023-03-11T12:21:08;1.30;;;1.20;;
7753;SDS011;3921;42.266;23.122;2023-03-11T12:23:50;4.37;;;1.50;;
7753;SDS011;3921;42.266;23.122;2023-03-11T12:26:28;3.47;;;2.50;;
7753;SDS011;3921;42.266;23.122;2023-03-11T12:29:02;1.57;;;1.17;;
7753;SDS011;3921;42.266;23.122;2023-03-11T12:31:34;2.27;;;1.60;;
7753;SDS011;3921;42.266;23.122;2023-03-11T12:34:06;2.10;;;1.30;;
7753;SDS011;3921;42.266;23.122;2023-03-11T12:36:37;1.37;;;1.00;;
7753;SDS011;3921;42.266;23.122;2023-03-11T12:39:06;4.03;;;1.80;;
7753;SDS011;3921;42.266;23.122;2023-03-11T12:41:47;3.43;;;1.27;;
7753;SDS011;3921;42.266;23.122;2023-03-11T12:44:22;3.17;;;1.50;;
7753;SDS011;3921;42.266;23.122;2023-03-11T12:49:53;2.50;;;1.33;;
7753;SDS011;3921;42.266;23.122;2023-03-11T12:52:25;4.60;;;2.20;;
7753;SDS011;3921;42.266;23.122;2023-03-11T13:00:58;2.17;;;1.70;;
7753;SDS011;3921;42.266;23.122;2023-03-11T13:03:48;2.47;;;1.57;;
7753;SDS011;3921;42.266;23.122;2023-03-11T13:09:23;3.33;;;1.83;;
7753;SDS011;3921;42.266;23.122;2023-03-11T13:11:50;3.87;;;2.00;;
7753;SDS011;3921;42.266;23.122;2023-03-11T13:14:28;2.40;;;1.87;;
7753;SDS011;3921;42.266;23.122;2023-03-11T13:19:52;2.80;;;1.37;;
7753;SDS011;3921;42.266;23.122;2023-03-11T13:25:24;4.60;;;2.17;;
7753;SDS011;3921;42.266;23.122;2023-03-11T13:27:58;2.40;;;1.70;;
7753;SDS011;3921;42.266;23.122;2023-03-11T13:30:39;4.57;;;1.97;;
7753;SDS011;3921;42.266;23.122;2023-03-11T13:33:17;2.50;;;1.80;;
7753;SDS011;3921;42.266;23.122;2023-03-11T13:35:55;2.33;;;1.80;;
7753;SDS011;3921;42.266;23.122;2023-03-11T13:38:37;2.27;;;1.60;;
7753;SDS011;3921;42.266;23.122;2023-03-11T13:41:12;6.20;;;2.70;;
7753;SDS011;3921;42.266;23.122;2023-03-11T13:43:43;2.23;;;1.87;;
7753;SDS011;3921;42.266;23.122;2023-03-11T13:46:18;3.23;;;1.57;;
7753;SDS011;3921;42.266;23.122;2023-03-11T13:48:52;1.67;;;1.40;;
7753;SDS011;3921;42.266;23.122;2023-03-11T13:51:31;2.90;;;1.63;;
7753;SDS011;3921;42.266;23.122;2023-03-11T13:54:03;2.90;;;1.67;;
7753;SDS011;3921;42.266;23.122;2023-03-11T13:56:36;2.07;;;1.33;;
7753;SDS011;3921;42.266;23.122;2023-03-11T13:59:15;2.57;;;1.13;;
7753;SDS011;3921;42.266;23.122;2023-03-11T14:01:51;2.80;;;1.67;;
7753;SDS011;3921;42.266;23.122;2023-03-11T14:04:22;10.20;;;5.17;;
7753;SDS011;3921;42.266;23.122;2023-03-11T14:06:52;8.43;;;4.33;;
7753;SDS011;3921;42.266;23.122;2023-03-11T14:09:20;7.20;;;3.47;;
7753;SDS011;3921;42.266;23.122;2023-03-11T14:11:48;4.47;;;3.00;;
7753;SDS011;3921;42.266;23.122;2023-03-11T14:14:26;12.37;;;6.10;;
7753;SDS011;3921;42.266;23.122;2023-03-11T14:17:00;10.10;;;6.50;;
7753;SDS011;3921;42.266;23.122;2023-03-11T14:19:29;3.60;;;2.30;;
7753;SDS011;3921;42.266;23.122;2023-03-11T14:21:56;5.80;;;2.37;;
7753;SDS011;3921;42.266;23.122;2023-03-11T14:24:25;7.43;;;2.77;;
7753;SDS011;3921;42.266;23.122;2023-03-11T14:26:54;8.50;;;5.00;;
7753;SDS011;3921;42.266;23.122;2023-03-11T14:29:26;6.20;;;3.70;;
7753;SDS011;3921;42.266;23.122;2023-03-11T14:31:57;3.00;;;2.40;;
7753;SDS011;3921;42.266;23.122;2023-03-11T14:34:26;6.00;;;2.37;;
7753;SDS011;3921;42.266;23.122;2023-03-11T14:36:56;5.07;;;3.80;;
7753;SDS011;3921;42.266;23.122;2023-03-11T14:39:25;4.73;;;2.70;;
7753;SDS011;3921;42.266;23.122;2023-03-11T14:41:56;3.73;;;2.30;;
7753;SDS011;3921;42.266;23.122;2023-03-11T14:44:29;3.40;;;2.70;;
7753;SDS011;3921;42.266;23.122;2023-03-11T14:47:03;3.60;;;2.50;;
7753;SDS011;3921;42.266;23.122;2023-03-11T14:49:36;4.03;;;2.13;;
7753;SDS011;3921;42.266;23.122;2023-03-11T14:52:07;4.60;;;2.83;;
7753;SDS011;3921;42.266;23.122;2023-03-11T14:54:40;5.17;;;3.07;;
7753;SDS011;3921;42.266;23.122;2023-03-11T14:57:10;5.73;;;3.90;;
7753;SDS011;3921;42.266;23.122;2023-03-11T14:59:44;5.73;;;3.80;;
7753;SDS011;3921;42.266;23.122;2023-03-11T15:02:29;6.37;;;3.80;;
7753;SDS011;3921;42.266;23.122;2023-03-11T15:05:07;5.80;;;3.50;;
7753;SDS011;3921;42.266;23.122;2023-03-11T15:07:40;4.57;;;2.97;;
7753;SDS011;3921;42.266;23.122;2023-03-11T15:10:07;5.27;;;3.17;;
7753;SDS011;3921;42.266;23.122;2023-03-11T15:12:36;4.63;;;1.67;;
7753;SDS011;3921;42.266;23.122;2023-03-11T15:15:19;8.23;;;3.23;;
7753;SDS011;3921;42.266;23.122;2023-03-11T15:17:51;4.80;;;2.83;;
7753;SDS011;3921;42.266;23.122;2023-03-11T15:20:25;2.63;;;2.23;;
7753;SDS011;3921;42.266;23.122;2023-03-11T15:22:56;7.53;;;3.00;;
7753;SDS011;3921;42.266;23.122;2023-03-11T15:25:25;6.13;;;3.83;;
7753;SDS011;3921;42.266;23.122;2023-03-11T15:27:53;6.43;;;4.20;;
7753;SDS011;3921;42.266;23.122;2023-03-11T15:30:21;8.77;;;4.30;;
7753;SDS011;3921;42.266;23.122;2023-03-11T15:32:50;11.00;;;6.33;;
7753;SDS011;3921;42.266;23.122;2023-03-11T15:35:18;12.70;;;6.23;;
7753;SDS011;3921;42.266;23.122;2023-03-11T15:37:48;14.07;;;7.67;;
7753;SDS011;3921;42.266;23.122;2023-03-11T15:40:18;12.27;;;8.10;;
7753;SDS011;3921;42.266;23.122;2023-03-11T15:42:48;19.30;;;9.90;;
7753;SDS011;3921;42.266;23.122;2023-03-11T15:45:35;12.73;;;6.13;;